Time;durP1;ratioP1;P1;durP2;ratioP2;P2;SDS_P1;SDS_P2;PMS_P1;PMS_P2;Temp;Humidity;BMP_temperature;BMP_pressure;BME280_temperature;BME280_humidity;BME280_pressure;Samples;Min_cycle;Max_cycle;Signal;HPM_P1;HPM_P2
2021/05/29 00:01:12;;;;;;;12.30;10.88;;;10.60;99.90;;;;;;5033019;28;20226;-77
2021/05/29 00:03:39;;;;;;;17.58;11.68;;;10.70;99.90;;;;;;5030630;28;20195;-77
2021/05/29 00:06:06;;;;;;;13.27;11.90;;;10.60;99.90;;;;;;5015987;28;20277;-77
2021/05/29 00:08:33;;;;;;;13.52;10.63;;;10.50;99.90;;;;;;5032384;28;20188;-77
2021/05/29 00:11:00;;;;;;;14.00;11.32;;;10.50;99.90;;;;;;5032052;28;20678;-77
2021/05/29 00:13:29;;;;;;;12.75;11.40;;;10.40;99.90;;;;;;5032518;28;20297;-77
2021/05/29 00:15:56;;;;;;;15.18;12.35;;;10.30;99.90;;;;;;4998231;28;20206;-77
2021/05/29 00:18:24;;;;;;;22.45;13.05;;;10.40;99.90;;;;;;5029734;28;20285;-77
2021/05/29 00:20:52;;;;;;;13.45;10.88;;;10.30;99.90;;;;;;5014282;28;20613;-77
2021/05/29 00:23:20;;;;;;;13.25;11.48;;;10.20;99.90;;;;;;4998663;28;20188;-77
2021/05/29 00:25:46;;;;;;;14.43;11.73;;;10.20;99.90;;;;;;5032034;28;20666;-77
2021/05/29 00:28:14;;;;;;;12.80;10.75;;;10.30;99.90;;;;;;5031717;28;20222;-77
2021/05/29 00:30:42;;;;;;;11.68;10.40;;;10.30;99.90;;;;;;5014009;28;20211;-77
2021/05/29 00:33:10;;;;;;;13.10;10.85;;;10.20;99.90;;;;;;5032021;28;20600;-77
2021/05/29 00:35:37;;;;;;;15.68;12.43;;;10.20;99.90;;;;;;5031892;28;20682;-78
2021/05/29 00:38:04;;;;;;;14.05;11.55;;;10.20;99.90;;;;;;5032140;28;20520;-78
2021/05/29 00:40:30;;;;;;;15.13;12.23;;;10.20;99.90;;;;;;5014518;28;20284;-77
2021/05/29 00:42:57;;;;;;;13.85;11.43;;;10.30;99.90;;;;;;5032132;28;20226;-77
2021/05/29 00:45:27;;;;;;;13.75;12.30;;;10.20;99.90;;;;;;5032145;28;20625;-77
2021/05/29 00:47:54;;;;;;;15.43;13.82;;;10.20;99.90;;;;;;5014378;28;20233;-77
2021/05/29 00:50:22;;;;;;;16.40;12.50;;;10.20;99.90;;;;;;5032011;28;20207;-77
2021/05/29 00:52:49;;;;;;;18.35;13.88;;;10.20;99.90;;;;;;5013652;28;20192;-79
2021/05/29 00:55:17;;;;;;;19.55;13.77;;;10.30;99.90;;;;;;5021194;28;20203;-77
2021/05/29 00:57:47;;;;;;;18.88;13.50;;;10.30;99.90;;;;;;4997909;28;20729;-77
2021/05/29 01:00:16;;;;;;;15.23;13.57;;;10.20;99.90;;;;;;5031753;28;20199;-76
2021/05/29 01:02:43;;;;;;;15.85;13.77;;;10.20;99.90;;;;;;5031701;28;20203;-77
2021/05/29 01:05:13;;;;;;;17.23;14.48;;;10.30;99.90;;;;;;5032039;28;20223;-77
2021/05/29 01:07:41;;;;;;;17.98;12.60;;;10.40;99.90;;;;;;5014063;28;20223;-77
2021/05/29 01:10:08;;;;;;;14.45;13.02;;;10.50;99.90;;;;;;5014167;28;20226;-76
2021/05/29 01:12:35;;;;;;;16.05;14.25;;;10.30;99.90;;;;;;5014464;28;20283;-76
2021/05/29 01:15:05;;;;;;;14.27;12.13;;;10.30;99.90;;;;;;5031839;28;20199;-77
2021/05/29 01:17:35;;;;;;;18.15;14.65;;;10.40;99.90;;;;;;5025855;23;20324;-77
2021/05/29 01:20:15;;;;;;;15.27;13.77;;;10.50;99.90;;;;;;4992074;28;20198;-77
2021/05/29 01:22:58;;;;;;;19.23;15.52;;;10.50;99.90;;;;;;4973356;28;20213;-77
2021/05/29 01:25:31;;;;;;;16.35;14.75;;;10.70;99.90;;;;;;4974488;28;20202;-77
2021/05/29 01:28:01;;;;;;;17.42;15.27;;;10.70;99.90;;;;;;4977842;28;20305;-77
2021/05/29 01:30:30;;;;;;;21.95;16.05;;;10.60;99.90;;;;;;4992030;28;20223;-77
2021/05/29 01:32:58;;;;;;;16.92;14.27;;;10.70;99.90;;;;;;4985161;28;20200;-77
2021/05/29 01:35:26;;;;;;;18.83;15.27;;;10.60;99.90;;;;;;4974567;28;20296;-77
2021/05/29 01:37:54;;;;;;;17.63;15.02;;;10.50;99.90;;;;;;4975755;28;20282;-77
2021/05/29 01:40:22;;;;;;;17.88;14.65;;;10.50;99.90;;;;;;4973198;28;20204;-77
2021/05/29 01:42:51;;;;;;;18.92;15.40;;;10.50;99.90;;;;;;4971138;28;20269;-77
2021/05/29 01:45:18;;;;;;;18.73;15.50;;;10.60;99.90;;;;;;4993990;28;20198;-77
2021/05/29 01:47:46;;;;;;;21.17;15.07;;;10.80;99.90;;;;;;4995872;28;20298;-77
2021/05/29 01:50:15;;;;;;;18.15;14.88;;;10.60;99.90;;;;;;4994881;28;20197;-77
2021/05/29 01:52:56;;;;;;;18.52;14.57;;;10.50;99.90;;;;;;4977159;28;20233;-77
2021/05/29 01:55:25;;;;;;;21.75;15.30;;;10.40;99.90;;;;;;4977795;28;20200;-77
2021/05/29 01:57:53;;;;;;;19.88;16.05;;;10.30;99.90;;;;;;4976697;28;20229;-77
2021/05/29 02:00:23;;;;;;;17.13;14.32;;;10.40;99.90;;;;;;4977066;28;20225;-77
2021/05/29 02:02:50;;;;;;;17.65;14.32;;;10.50;99.90;;;;;;4978230;28;20219;-77
2021/05/29 02:05:19;;;;;;;23.52;15.15;;;10.50;99.90;;;;;;4978683;28;20281;-77
2021/05/29 02:07:46;;;;;;;20.30;14.52;;;10.40;99.90;;;;;;4976999;28;20233;-77
2021/05/29 02:10:16;;;;;;;21.88;16.30;;;10.40;99.90;;;;;;4977999;28;20200;-77
2021/05/29 02:12:44;;;;;;;18.15;14.77;;;10.40;99.90;;;;;;4960991;28;20210;-77
2021/05/29 02:15:14;;;;;;;20.70;14.38;;;10.30;99.90;;;;;;4991046;28;20202;-76
2021/05/29 02:17:42;;;;;;;24.88;15.05;;;10.30;99.90;;;;;;4996978;28;20232;-77
2021/05/29 02:20:10;;;;;;;17.75;15.80;;;10.30;99.90;;;;;;4997376;28;20282;-78
2021/05/29 02:22:37;;;;;;;18.45;14.40;;;10.30;99.90;;;;;;4998682;28;20260;-77
2021/05/29 02:25:05;;;;;;;18.65;14.77;;;10.40;99.90;;;;;;4997970;28;20293;-78
2021/05/29 02:27:32;;;;;;;16.42;13.88;;;10.50;99.90;;;;;;4980318;28;20314;-77
2021/05/29 02:30:01;;;;;;;26.85;17.58;;;10.60;99.90;;;;;;4997911;28;20198;-77
2021/05/29 02:32:28;;;;;;;16.80;15.07;;;10.70;99.90;;;;;;4982937;28;20679;-76
2021/05/29 02:34:57;;;;;;;16.20;14.30;;;10.50;99.90;;;;;;5000938;28;20197;-76
2021/05/29 02:37:31;;;;;;;17.73;15.85;;;10.70;99.90;;;;;;5002347;28;20750;-76
2021/05/29 02:40:19;;;;;;;16.48;14.48;;;10.50;99.90;;;;;;4998739;28;20201;-76
2021/05/29 02:42:45;;;;;;;24.63;15.18;;;10.50;99.90;;;;;;4998661;28;20231;-77
2021/05/29 02:45:14;;;;;;;17.90;14.88;;;10.50;99.90;;;;;;4997140;28;20223;-77
2021/05/29 02:47:41;;;;;;;18.65;14.38;;;10.50;99.90;;;;;;4996304;28;20225;-77
2021/05/29 02:50:09;;;;;;;20.00;15.15;;;10.60;99.90;;;;;;4997034;28;20189;-77
2021/05/29 02:52:37;;;;;;;17.85;14.70;;;10.50;99.90;;;;;;4995400;28;20201;-77
2021/05/29 02:55:06;;;;;;;19.50;15.65;;;10.50;99.90;;;;;;4993819;28;20200;-77
2021/05/29 02:57:32;;;;;;;16.23;14.40;;;10.60;99.90;;;;;;4993802;28;20244;-77
2021/05/29 02:59:59;;;;;;;18.40;14.65;;;10.50;99.90;;;;;;4994912;28;20197;-77
2021/05/29 03:02:27;;;;;;;19.42;14.70;;;10.60;99.90;;;;;;4979379;28;20209;-77
2021/05/29 03:04:53;;;;;;;19.25;14.60;;;10.60;99.90;;;;;;4995362;28;20682;-77
2021/05/29 03:07:20;;;;;;;18.90;14.07;;;10.60;99.90;;;;;;4996329;28;20229;-76
2021/05/29 03:09:47;;;;;;;20.35;15.00;;;10.70;99.90;;;;;;4995393;28;20215;-77
2021/05/29 03:12:14;;;;;;;24.67;15.05;;;10.70;99.90;;;;;;4995479;28;20197;-77
2021/05/29 03:14:42;;;;;;;16.08;14.05;;;10.80;99.90;;;;;;4983764;28;20201;-77
2021/05/29 03:17:09;;;;;;;16.73;14.50;;;10.80;99.90;;;;;;4975357;28;20237;-77
2021/05/29 03:19:36;;;;;;;20.67;13.30;;;11.00;99.90;;;;;;4975578;28;20261;-76
2021/05/29 03:22:10;;;;;;;17.38;12.55;;;10.90;99.90;;;;;;4977017;28;20201;-77
2021/05/29 03:24:49;;;;;;;18.67;12.77;;;10.90;99.90;;;;;;4975888;28;20259;-77
2021/05/29 03:27:31;;;;;;;17.23;12.35;;;10.80;99.90;;;;;;4979695;28;20226;-78
2021/05/29 03:30:07;;;;;;;15.52;12.93;;;10.80;99.90;;;;;;4978355;28;20217;-77
2021/05/29 03:32:50;;;;;;;19.92;14.20;;;10.80;99.90;;;;;;4977855;28;20201;-77
2021/05/29 03:35:25;;;;;;;13.35;10.80;;;11.00;99.90;;;;;;4978360;28;20201;-78
2021/05/29 03:38:00;;;;;;;15.93;11.80;;;11.00;99.90;;;;;;4978713;28;20220;-78
2021/05/29 03:40:37;;;;;;;18.30;12.35;;;11.00;99.90;;;;;;4977880;28;20707;-78
2021/05/29 03:43:04;;;;;;;16.05;12.45;;;11.00;99.90;;;;;;4980457;28;20230;-78
2021/05/29 03:45:31;;;;;;;15.20;11.30;;;11.10;99.90;;;;;;4995880;28;20199;-78
2021/05/29 03:47:57;;;;;;;15.52;11.68;;;11.00;99.90;;;;;;4997392;28;20239;-77
2021/05/29 03:50:26;;;;;;;14.63;12.60;;;10.90;99.90;;;;;;4993506;28;20796;-78
2021/05/29 03:52:54;;;;;;;16.48;12.35;;;10.80;99.90;;;;;;4977984;28;20300;-78
2021/05/29 03:55:22;;;;;;;14.65;12.05;;;11.00;99.90;;;;;;4976473;28;20194;-78
2021/05/29 03:57:50;;;;;;;22.67;13.60;;;11.10;99.90;;;;;;4977608;28;20311;-78
2021/05/29 04:00:20;;;;;;;13.05;11.32;;;11.00;99.90;;;;;;4976981;28;20190;-78
2021/05/29 04:02:48;;;;;;;14.98;11.30;;;11.00;99.90;;;;;;4995730;28;20226;-78
2021/05/29 04:05:15;;;;;;;15.80;10.68;;;10.90;99.90;;;;;;4996220;28;20220;-77
2021/05/29 04:07:43;;;;;;;13.98;12.13;;;10.90;99.90;;;;;;4996383;28;20790;-78
2021/05/29 04:10:10;;;;;;;16.08;12.35;;;10.90;99.90;;;;;;4997130;28;20197;-78
2021/05/29 04:12:37;;;;;;;14.48;12.05;;;10.90;99.90;;;;;;4997868;28;20686;-78
2021/05/29 04:15:07;;;;;;;14.10;11.75;;;10.90;99.90;;;;;;4997090;28;20201;-79
2021/05/29 04:17:34;;;;;;;11.43;10.23;;;11.10;99.90;;;;;;4997299;28;20219;-78
2021/05/29 04:20:00;;;;;;;13.95;10.50;;;11.00;99.90;;;;;;4997058;28;20280;-78
2021/05/29 04:22:29;;;;;;;13.90;11.48;;;11.10;99.90;;;;;;4997457;28;20209;-78
2021/05/29 04:24:57;;;;;;;13.60;12.10;;;11.00;99.90;;;;;;4995959;28;20631;-78
2021/05/29 04:27:24;;;;;;;12.77;11.23;;;11.00;99.90;;;;;;4995988;28;20229;-78
2021/05/29 04:29:51;;;;;;;13.07;11.18;;;10.90;99.90;;;;;;4997226;28;20190;-77
2021/05/29 04:32:18;;;;;;;14.93;11.65;;;10.80;99.90;;;;;;4985987;28;20281;-77
2021/05/29 04:34:45;;;;;;;13.65;11.75;;;11.00;99.90;;;;;;4978735;28;20190;-78
2021/05/29 04:37:15;;;;;;;14.68;12.75;;;11.20;99.90;;;;;;4963364;28;20304;-78
2021/05/29 04:39:42;;;;;;;12.57;11.30;;;11.10;99.90;;;;;;4995500;28;20213;-79
2021/05/29 04:42:10;;;;;;;15.57;13.25;;;10.90;99.90;;;;;;4980837;28;20240;-78
2021/05/29 04:44:37;;;;;;;20.13;14.95;;;11.00;99.90;;;;;;4964887;28;20209;-79
2021/05/29 04:47:04;;;;;;;13.10;11.57;;;11.10;99.90;;;;;;4979722;28;20338;-79
2021/05/29 04:49:31;;;;;;;13.50;12.10;;;10.80;99.90;;;;;;4979742;28;20240;-79
2021/05/29 04:52:04;;;;;;;14.23;12.07;;;10.90;99.90;;;;;;4979102;28;20217;-79
2021/05/29 04:54:39;;;;;;;14.73;13.23;;;10.80;99.90;;;;;;4994325;28;20202;-78
2021/05/29 04:57:34;;;;;;;18.67;14.75;;;11.00;99.90;;;;;;4977679;28;20597;-78
2021/05/29 05:00:25;;;;;;;13.15;11.48;;;11.10;99.90;;;;;;4979499;28;20196;-79
2021/05/29 05:03:04;;;;;;;12.90;11.50;;;11.00;99.90;;;;;;4962434;28;20194;-80
2021/05/29 05:05:35;;;;;;;14.45;11.68;;;10.80;99.90;;;;;;4981915;28;20263;-79
2021/05/29 05:08:04;;;;;;;13.50;12.15;;;10.80;99.90;;;;;;4997675;28;20319;-80
2021/05/29 05:10:30;;;;;;;14.80;13.20;;;10.70;99.90;;;;;;4997546;28;20706;-80
2021/05/29 05:12:58;;;;;;;18.60;13.68;;;10.90;99.90;;;;;;4996954;28;20805;-80
2021/05/29 05:15:25;;;;;;;14.40;12.88;;;11.00;99.90;;;;;;4990678;28;20243;-80
2021/05/29 05:17:52;;;;;;;15.60;11.57;;;11.30;99.90;;;;;;4996890;28;20266;-80
2021/05/29 05:20:19;;;;;;;13.30;11.45;;;11.10;99.90;;;;;;4996705;28;20201;-79
2021/05/29 05:22:46;;;;;;;12.98;11.63;;;11.10;99.90;;;;;;4996590;28;20228;-80
2021/05/29 05:25:31;;;;;;;15.93;13.75;;;11.10;99.90;;;;;;4998065;28;20291;-80
2021/05/29 05:28:39;;;;;;;13.68;11.10;;;11.10;99.90;;;;;;4998127;28;20228;-79
2021/05/29 05:31:29;;;;;;;14.52;10.80;;;10.90;99.90;;;;;;4998161;28;20225;-80
2021/05/29 05:37:47;;;;;;;16.75;13.32;;;11.00;99.90;;;;;;4996751;28;20208;-80
2021/05/29 05:40:18;;;;;;;13.18;11.88;;;11.00;99.90;;;;;;4961523;28;20210;-80
2021/05/29 05:43:00;;;;;;;13.63;10.00;;;11.00;99.90;;;;;;4996902;28;20292;-80
2021/05/29 05:45:52;;;;;;;12.70;10.40;;;10.90;99.90;;;;;;4981046;28;20212;-80
2021/05/29 05:48:19;;;;;;;12.95;11.20;;;11.00;99.90;;;;;;4996918;28;20248;-80
2021/05/29 05:50:52;;;;;;;14.73;11.18;;;11.40;99.90;;;;;;4998749;28;20201;-80
2021/05/29 05:53:20;;;;;;;12.48;11.25;;;11.40;99.90;;;;;;4998566;28;20236;-80
2021/05/29 05:55:46;;;;;;;11.13;9.93;;;11.30;99.90;;;;;;4997856;28;20678;-80
2021/05/29 05:58:13;;;;;;;14.27;11.20;;;11.30;99.90;;;;;;4998456;28;20308;-80
2021/05/29 06:00:39;;;;;;;13.43;11.00;;;11.50;99.90;;;;;;4998458;28;20209;-80
2021/05/29 06:03:07;;;;;;;13.52;12.10;;;11.40;99.90;;;;;;4997930;28;20198;-80
2021/05/29 06:05:34;;;;;;;14.13;12.45;;;11.40;99.90;;;;;;4988546;28;20202;-80
2021/05/29 06:08:01;;;;;;;14.05;12.60;;;11.40;99.90;;;;;;4976791;28;20297;-79
2021/05/29 06:10:28;;;;;;;15.07;13.38;;;11.30;99.90;;;;;;4978765;28;20202;-80
2021/05/29 06:12:54;;;;;;;12.95;11.75;;;11.20;99.90;;;;;;4983717;28;20547;-80
2021/05/29 06:18:18;;;;;;;14.27;11.40;;;11.40;99.90;;;;;;4997653;28;20217;-80
2021/05/29 06:20:48;;;;;;;15.85;10.52;;;11.30;99.90;;;;;;4999099;28;20235;-80
2021/05/29 06:23:15;;;;;;;13.00;11.40;;;11.20;99.90;;;;;;4997406;28;20205;-80
2021/05/29 06:25:43;;;;;;;14.45;12.13;;;11.30;99.90;;;;;;4998857;28;20205;-79
2021/05/29 06:28:10;;;;;;;18.05;12.15;;;11.30;99.90;;;;;;5001154;28;20231;-80
2021/05/29 06:30:37;;;;;;;13.20;11.88;;;11.30;99.90;;;;;;4998039;28;20200;-80
2021/05/29 06:33:05;;;;;;;16.63;12.50;;;11.20;99.90;;;;;;4978567;28;20245;-80
2021/05/29 06:35:33;;;;;;;16.90;13.57;;;11.30;99.90;;;;;;4997427;28;20303;-80
2021/05/29 06:38:00;;;;;;;14.23;12.30;;;11.40;99.90;;;;;;4981124;28;20214;-80
2021/05/29 06:40:28;;;;;;;14.80;12.77;;;11.50;99.90;;;;;;4982610;28;20213;-80
2021/05/29 06:42:55;;;;;;;13.00;11.60;;;11.30;99.90;;;;;;4981148;28;20222;-80
2021/05/29 06:45:22;;;;;;;13.65;12.30;;;11.40;99.90;;;;;;4982244;28;20194;-80
2021/05/29 06:47:50;;;;;;;14.40;12.93;;;11.40;99.90;;;;;;4979939;28;20251;-79
2021/05/29 06:50:17;;;;;;;16.15;12.85;;;11.30;99.90;;;;;;4988056;28;20201;-79
2021/05/29 06:52:49;;;;;;;14.98;13.23;;;11.30;99.90;;;;;;5000585;28;20196;-78
2021/05/29 07:00:45;;;;;;;15.57;13.50;;;11.50;99.90;;;;;;4997786;28;20201;-81
2021/05/29 07:03:12;;;;;;;14.85;13.43;;;11.50;99.90;;;;;;4999255;28;20292;-78
2021/05/29 07:05:39;;;;;;;12.00;10.80;;;11.70;99.90;;;;;;4989388;28;20205;-79
2021/05/29 07:08:16;;;;;;;14.15;10.77;;;11.50;99.90;;;;;;5040802;23;20227;-79
2021/05/29 07:10:49;;;;;;;12.63;11.32;;;11.50;99.90;;;;;;5038650;28;20195;-78
2021/05/29 07:13:21;;;;;;;15.82;14.15;;;11.50;99.90;;;;;;5038563;28;20267;-78
2021/05/29 07:15:49;;;;;;;16.40;13.48;;;11.60;99.90;;;;;;5039710;28;20199;-79
2021/05/29 07:18:16;;;;;;;16.38;13.02;;;11.60;99.90;;;;;;5039166;28;20215;-78
2021/05/29 07:20:51;;;;;;;15.80;13.68;;;11.50;99.90;;;;;;5036349;28;20610;-78
2021/05/29 07:26:23;;;;;;;14.32;12.82;;;11.50;99.90;;;;;;5024103;28;20693;-77
2021/05/29 07:28:57;;;;;;;15.50;13.85;;;11.50;99.90;;;;;;5026431;28;20250;-78
2021/05/29 07:34:15;;;;;;;16.13;12.45;;;11.70;99.90;;;;;;5018061;28;20197;-78
2021/05/29 07:36:51;;;;;;;17.30;14.35;;;12.00;99.90;;;;;;5015703;28;20217;-79
2021/05/29 07:39:19;;;;;;;21.73;14.57;;;11.90;99.90;;;;;;5027547;28;20210;-78
2021/05/29 07:42:00;;;;;;;19.55;15.15;;;11.70;99.90;;;;;;5038486;28;20203;-79
2021/05/29 07:44:30;;;;;;;15.70;13.60;;;11.70;99.90;;;;;;5038601;28;20208;-78
2021/05/29 07:47:00;;;;;;;14.65;13.15;;;11.70;99.90;;;;;;5037240;28;20219;-79
2021/05/29 07:49:40;;;;;;;18.35;13.93;;;11.70;99.90;;;;;;5039322;28;20219;-79
2021/05/29 07:52:14;;;;;;;15.65;14.07;;;11.60;99.90;;;;;;4999697;28;20609;-79
2021/05/29 07:54:55;;;;;;;18.15;14.20;;;11.60;99.90;;;;;;5019895;28;20208;-79
2021/05/29 08:00:29;;;;;;;22.55;14.00;;;11.80;99.90;;;;;;5021811;28;20208;-77
2021/05/29 08:02:55;;;;;;;18.80;14.00;;;11.80;99.90;;;;;;5018127;28;20255;-78
2021/05/29 08:05:23;;;;;;;15.80;12.13;;;11.70;99.90;;;;;;5017762;28;20205;-78
2021/05/29 08:07:52;;;;;;;16.65;13.52;;;11.90;99.90;;;;;;5032596;28;20222;-77
2021/05/29 08:10:19;;;;;;;15.85;12.32;;;11.80;99.90;;;;;;5031336;28;20201;-79
2021/05/29 08:12:46;;;;;;;13.50;11.77;;;11.70;99.90;;;;;;5010191;28;20205;-79
2021/05/29 08:15:14;;;;;;;14.20;12.35;;;11.50;99.90;;;;;;5002190;28;20402;-79
2021/05/29 08:17:41;;;;;;;13.13;11.25;;;11.60;99.90;;;;;;5000761;28;20221;-79
2021/05/29 08:20:09;;;;;;;16.00;11.95;;;12.00;99.90;;;;;;5016135;28;20260;-79
2021/05/29 08:22:36;;;;;;;16.65;12.40;;;12.10;99.90;;;;;;5022666;28;20255;-79
2021/05/29 08:25:03;;;;;;;12.23;11.00;;;12.00;99.90;;;;;;5017711;28;20211;-79
2021/05/29 08:27:30;;;;;;;14.50;11.43;;;11.80;99.90;;;;;;5022136;28;20230;-79
2021/05/29 08:29:58;;;;;;;16.88;11.70;;;11.80;99.90;;;;;;5021197;28;20552;-79
2021/05/29 08:32:25;;;;;;;14.65;13.10;;;11.70;99.90;;;;;;5020312;28;20292;-79
2021/05/29 08:34:52;;;;;;;16.48;12.48;;;11.80;99.90;;;;;;5020984;28;20230;-79
2021/05/29 08:37:19;;;;;;;15.10;11.88;;;11.70;99.90;;;;;;5019718;28;20217;-79
2021/05/29 08:39:48;;;;;;;18.13;12.10;;;11.70;99.90;;;;;;5022524;28;20647;-78
2021/05/29 08:42:16;;;;;;;13.65;12.25;;;11.80;99.90;;;;;;5039547;28;20192;-79
2021/05/29 08:44:59;;;;;;;13.57;12.18;;;11.90;99.90;;;;;;5030944;28;20203;-79
2021/05/29 08:47:37;;;;;;;13.93;12.23;;;12.10;99.90;;;;;;5016516;28;20251;-79
2021/05/29 08:50:09;;;;;;;15.55;11.25;;;12.30;99.90;;;;;;5019149;28;20486;-79
2021/05/29 08:55:34;;;;;;;22.48;15.15;;;12.30;99.90;;;;;;5019595;28;20264;-79
2021/05/29 08:58:01;;;;;;;19.95;14.38;;;12.00;99.90;;;;;;5020759;28;20315;-80
2021/05/29 09:00:33;;;;;;;21.65;15.18;;;11.90;99.90;;;;;;5016746;28;20336;-78
2021/05/29 09:03:15;;;;;;;17.10;14.40;;;11.80;99.90;;;;;;5017714;28;20713;-79
2021/05/29 09:05:53;;;;;;;20.40;14.27;;;11.80;99.90;;;;;;5019310;28;20201;-78
2021/05/29 09:08:21;;;;;;;16.92;13.55;;;11.60;99.90;;;;;;5016626;28;20236;-78
2021/05/29 09:10:51;;;;;;;18.10;12.95;;;11.60;99.90;;;;;;5019619;28;20338;-79
2021/05/29 09:13:19;;;;;;;15.00;13.05;;;11.60;99.90;;;;;;5023627;28;20207;-79
2021/05/29 09:15:50;;;;;;;15.73;14.07;;;11.70;99.90;;;;;;5023222;28;20255;-78
2021/05/29 09:18:39;;;;;;;17.45;15.68;;;11.80;99.90;;;;;;5020913;28;20216;-79
2021/05/29 09:21:27;;;;;;;17.75;14.02;;;11.70;99.90;;;;;;5003783;28;20216;-79
2021/05/29 09:23:56;;;;;;;15.65;13.75;;;11.60;99.90;;;;;;5022801;28;20218;-77
2021/05/29 09:26:40;;;;;;;18.02;13.85;;;11.60;99.90;;;;;;5032167;28;20196;-79
2021/05/29 09:29:16;;;;;;;17.35;14.40;;;11.70;99.90;;;;;;5035145;28;20230;-78
2021/05/29 09:31:59;;;;;;;16.58;12.85;;;11.70;99.90;;;;;;5033285;28;20210;-81
2021/05/29 09:34:38;;;;;;;16.40;12.85;;;11.90;99.90;;;;;;5018245;28;20203;-79
2021/05/29 09:37:11;;;;;;;15.07;13.55;;;12.10;99.90;;;;;;5005915;28;20302;-79
2021/05/29 09:39:40;;;;;;;12.80;11.35;;;12.20;99.90;;;;;;4998664;28;20565;-79
2021/05/29 09:42:09;;;;;;;14.85;12.95;;;12.10;99.90;;;;;;4998642;28;20209;-79
2021/05/29 09:44:36;;;;;;;13.32;11.93;;;12.20;99.90;;;;;;4997294;28;20406;-79
2021/05/29 09:47:04;;;;;;;13.65;11.23;;;12.30;99.90;;;;;;5016122;28;20220;-79
2021/05/29 09:49:52;;;;;;;15.63;12.95;;;12.50;99.90;;;;;;5017466;28;20212;-79
2021/05/29 09:52:33;;;;;;;12.38;10.95;;;12.40;99.90;;;;;;5018304;28;20203;-79
2021/05/29 09:55:02;;;;;;;17.33;12.05;;;12.60;99.90;;;;;;5020664;28;20196;-79
2021/05/29 09:57:29;;;;;;;15.25;12.82;;;12.60;99.90;;;;;;5023012;28;20244;-80
2021/05/29 09:59:57;;;;;;;16.98;14.05;;;12.60;99.90;;;;;;5024170;28;20204;-79
2021/05/29 10:02:24;;;;;;;14.88;13.27;;;12.70;99.90;;;;;;5022593;28;20205;-79
2021/05/29 10:04:55;;;;;;;18.45;15.27;;;12.60;99.90;;;;;;5022740;28;20201;-79
2021/05/29 10:07:24;;;;;;;16.17;14.30;;;12.70;99.90;;;;;;5022934;28;20235;-78
2021/05/29 10:09:52;;;;;;;17.63;13.85;;;12.80;99.90;;;;;;5027353;28;20239;-78
2021/05/29 10:12:19;;;;;;;14.80;13.35;;;12.70;99.90;;;;;;5036500;28;20223;-78
2021/05/29 10:14:46;;;;;;;17.63;14.70;;;12.60;99.90;;;;;;5047598;28;20207;-79
2021/05/29 10:17:16;;;;;;;16.08;14.55;;;12.50;99.90;;;;;;5045687;28;20239;-84
2021/05/29 10:20:12;;;;;;;18.33;14.98;;;12.50;99.90;;;;;;5038147;28;20193;-85
2021/05/29 10:22:39;;;;;;;15.93;13.35;;;12.30;99.90;;;;;;5033469;28;20220;-77
2021/05/29 10:25:10;;;;;;;16.75;15.00;;;11.90;99.90;;;;;;5033962;28;20216;-79
2021/05/29 10:27:38;;;;;;;16.25;13.60;;;12.00;99.90;;;;;;5027695;28;20220;-77
2021/05/29 10:30:06;;;;;;;14.35;12.85;;;11.90;99.90;;;;;;5029797;28;20200;-79
2021/05/29 10:32:33;;;;;;;15.38;13.77;;;12.00;99.90;;;;;;5028777;28;20212;-77
2021/05/29 10:35:04;;;;;;;16.35;14.65;;;12.30;99.90;;;;;;5017195;28;20212;-77
2021/05/29 10:37:35;;;;;;;17.42;13.45;;;12.40;99.90;;;;;;5017823;28;20208;-78
2021/05/29 10:40:22;;;;;;;13.23;11.70;;;12.50;99.90;;;;;;5023333;28;20523;-79
2021/05/29 10:43:14;;;;;;;16.50;13.05;;;12.40;99.90;;;;;;5027525;28;20250;-77
2021/05/29 10:46:06;;;;;;;13.98;12.55;;;12.40;99.90;;;;;;5023852;28;20200;-79
2021/05/29 10:48:47;;;;;;;18.02;12.93;;;12.20;99.90;;;;;;5029055;28;20220;-78
2021/05/29 10:51:14;;;;;;;13.93;12.30;;;12.20;99.90;;;;;;5031101;28;20212;-78
2021/05/29 10:53:57;;;;;;;14.77;13.27;;;12.20;99.90;;;;;;5036612;28;20200;-79
2021/05/29 10:56:29;;;;;;;16.25;13.15;;;12.60;99.90;;;;;;5030946;28;20196;-80
2021/05/29 10:59:02;;;;;;;17.52;14.55;;;12.50;99.90;;;;;;5012334;28;20208;-78
2021/05/29 11:02:04;;;;;;;12.27;11.05;;;12.50;99.90;;;;;;5031469;28;20204;-78
2021/05/29 11:04:32;;;;;;;15.52;13.93;;;12.60;99.90;;;;;;5044895;28;20191;-79
2021/05/29 11:07:12;;;;;;;13.63;11.82;;;12.90;99.90;;;;;;5038798;28;20251;-79
2021/05/29 11:09:54;;;;;;;16.88;13.00;;;13.00;99.90;;;;;;5021397;28;20196;-81
2021/05/29 11:12:22;;;;;;;16.23;13.52;;;12.90;99.90;;;;;;5023423;28;20208;-81
2021/05/29 11:14:51;;;;;;;13.85;11.88;;;12.90;99.90;;;;;;5006994;28;20208;-80
2021/05/29 11:17:19;;;;;;;15.23;13.63;;;12.80;99.90;;;;;;5005794;28;20256;-80
2021/05/29 11:20:21;;;;;;;15.18;12.95;;;12.80;99.90;;;;;;5003089;28;20228;-78
2021/05/29 11:22:50;;;;;;;16.52;13.27;;;12.70;99.90;;;;;;4957385;29;20209;-78
2021/05/29 11:25:20;;;;;;;20.27;16.13;;;12.70;99.90;;;;;;4968822;28;20221;-81
2021/05/29 11:27:48;;;;;;;18.70;14.65;;;12.70;99.90;;;;;;5000674;28;20228;-80
2021/05/29 11:30:19;;;;;;;17.50;14.77;;;12.50;99.90;;;;;;5005303;28;20278;-78
2021/05/29 11:32:54;;;;;;;20.70;15.65;;;12.60;99.90;;;;;;5024638;28;20197;-80
2021/05/29 11:35:31;;;;;;;17.45;15.00;;;12.50;99.90;;;;;;5039371;28;20246;-80
2021/05/29 11:38:13;;;;;;;18.20;16.30;;;12.60;99.90;;;;;;5005997;28;20316;-79
2021/05/29 11:40:47;;;;;;;17.63;15.80;;;12.50;99.90;;;;;;5024030;28;20197;-80
2021/05/29 11:43:15;;;;;;;20.33;15.20;;;12.50;99.90;;;;;;5027556;28;20205;-80
2021/05/29 11:45:43;;;;;;;36.97;27.35;;;12.70;99.90;;;;;;5028582;28;20203;-79
2021/05/29 11:48:10;;;;;;;18.45;15.20;;;13.00;99.90;;;;;;5046699;28;20277;-79
2021/05/29 11:50:40;;;;;;;15.60;14.02;;;12.90;99.90;;;;;;5046951;28;20200;-79
2021/05/29 11:53:11;;;;;;;15.00;13.48;;;13.20;99.90;;;;;;5047063;28;20219;-80
2021/05/29 11:55:52;;;;;;;16.00;12.90;;;13.00;99.90;;;;;;5048285;28;20200;-79
2021/05/29 11:58:19;;;;;;;13.30;11.50;;;13.00;99.90;;;;;;5009638;28;20218;-80
2021/05/29 12:01:43;;;;;;;18.55;11.35;;;13.10;99.90;;;;;;5008327;28;20380;-79
2021/05/29 12:04:11;;;;;;;16.27;11.77;;;13.20;99.90;;;;;;5011103;28;20285;-79
2021/05/29 12:06:44;;;;;;;13.50;11.18;;;13.70;99.90;;;;;;5039812;28;20232;-79
2021/05/29 12:09:15;;;;;;;11.63;10.35;;;13.90;99.90;;;;;;5030039;28;20239;-79
2021/05/29 12:11:45;;;;;;;12.20;10.77;;;13.80;99.90;;;;;;5031161;28;20204;-79
2021/05/29 12:14:14;;;;;;;11.93;9.60;;;13.90;99.90;;;;;;5028668;28;20216;-78
2021/05/29 12:16:44;;;;;;;11.32;10.20;;;13.90;99.90;;;;;;5035454;28;20227;-79
2021/05/29 12:19:32;;;;;;;13.35;10.60;;;13.60;99.90;;;;;;5047676;28;20196;-78
2021/05/29 12:22:01;;;;;;;12.30;10.75;;;13.60;99.90;;;;;;5047962;28;20304;-79
2021/05/29 12:24:34;;;;;;;12.35;10.48;;;13.40;99.90;;;;;;5050081;28;20199;-80
2021/05/29 12:27:10;;;;;;;11.50;10.40;;;13.40;99.90;;;;;;5050696;28;20215;-79
2021/05/29 12:29:38;;;;;;;14.50;10.15;;;13.60;99.90;;;;;;5049884;28;20188;-79
2021/05/29 12:32:06;;;;;;;15.48;11.82;;;13.80;99.90;;;;;;5050114;28;20200;-79
2021/05/29 12:34:33;;;;;;;12.90;10.07;;;14.00;99.90;;;;;;5030152;28;20211;-79
2021/05/29 12:37:04;;;;;;;13.75;11.40;;;14.20;99.90;;;;;;5028507;28;20228;-79
2021/05/29 12:39:52;;;;;;;11.60;10.20;;;14.40;99.90;;;;;;5029868;28;20209;-79
2021/05/29 12:42:22;;;;;;;14.82;10.38;;;14.30;99.90;;;;;;5012117;28;20246;-80
2021/05/29 12:44:50;;;;;;;10.82;8.90;;;14.40;99.90;;;;;;5028239;28;20292;-79
2021/05/29 12:47:18;;;;;;;13.88;10.02;;;14.60;99.90;;;;;;5029949;28;20220;-80
2021/05/29 12:49:45;;;;;;;12.15;10.13;;;14.70;99.90;;;;;;5029763;28;20243;-80
2021/05/29 12:52:32;;;;;;;11.23;9.45;;;15.00;99.90;;;;;;5027655;28;20205;-83
2021/05/29 12:55:00;;;;;;;13.15;9.70;;;15.20;99.90;;;;;;5025680;28;20188;-82
2021/05/29 12:57:38;;;;;;;11.55;9.27;;;15.40;99.90;;;;;;5026588;28;20225;-81
2021/05/29 13:00:23;;;;;;;9.80;8.80;;;16.10;99.90;;;;;;5029677;28;20196;-80
2021/05/29 13:08:28;;;;;;;11.48;9.27;;;17.20;99.90;;;;;;5025805;28;20263;-79
2021/05/29 13:10:59;;;;;;;10.50;9.07;;;16.80;99.90;;;;;;5026549;28;20259;-80
2021/05/29 13:13:27;;;;;;;9.32;7.93;;;16.60;99.90;;;;;;5026389;28;20283;-80
2021/05/29 13:16:04;;;;;;;8.25;7.45;;;16.30;99.90;;;;;;5026290;28;20421;-80
2021/05/29 13:18:34;;;;;;;10.05;9.15;;;16.40;99.90;;;;;;5035083;28;20229;-81